Time;durP1;ratioP1;P1;durP2;ratioP2;P2;SDS_P1;SDS_P2;PMS_P1;PMS_P2;Temp;Humidity;BMP_temperature;BMP_pressure;BME280_temperature;BME280_humidity;BME280_pressure;Samples;Min_cycle;Max_cycle;Signal;HPM_P1;HPM_P2
2024/01/10 00:02:07;;;;;;;24.60;14.00;;;;;;;;;;5094146;28;20207;-75
2024/01/10 00:04:33;;;;;;;26.23;15.48;;;;;;;;;;5094088;28;20680;-75
2024/01/10 00:06:59;;;;;;;25.40;14.45;;;;;;;;;;5093806;28;20235;-75
2024/01/10 00:09:25;;;;;;;28.45;15.82;;;;;;;;;;5093883;28;20199;-75
2024/01/10 00:11:52;;;;;;;24.50;14.85;;;;;;;;;;5094258;28;20214;-75
2024/01/10 00:14:19;;;;;;;29.45;15.85;;;;;;;;;;5094038;28;20200;-75
2024/01/10 00:16:46;;;;;;;29.48;16.27;;;;;;;;;;5093886;28;20280;-75
2024/01/10 00:19:12;;;;;;;31.58;14.80;;;;;;;;;;5093954;28;20212;-75
2024/01/10 00:21:38;;;;;;;26.27;15.07;;;;;;;;;;5093527;28;20572;-75
2024/01/10 00:24:05;;;;;;;25.70;15.43;;;;;;;;;;5093962;28;20204;-74
2024/01/10 00:26:31;;;;;;;23.80;14.25;;;;;;;;;;5094212;28;20225;-75
2024/01/10 00:28:58;;;;;;;27.98;16.05;;;;;;;;;;5093710;28;20203;-74
2024/01/10 00:31:25;;;;;;;31.48;15.85;;;;;;;;;;5093574;28;20207;-73
2024/01/10 00:33:52;;;;;;;28.10;15.65;;;;;;;;;;5093639;28;20200;-74
2024/01/10 00:36:18;;;;;;;27.25;15.95;;;;;;;;;;5093317;28;20228;-74
2024/01/10 00:38:44;;;;;;;27.58;15.75;;;;;;;;;;5093558;28;20226;-74
2024/01/10 00:41:11;;;;;;;28.73;15.35;;;;;;;;;;5093764;28;20196;-74
2024/01/10 00:43:38;;;;;;;26.10;15.35;;;;;;;;;;5093342;28;20206;-74
2024/01/10 00:46:04;;;;;;;26.90;15.70;;;;;;;;;;5092633;28;20227;-74
2024/01/10 00:48:32;;;;;;;29.67;15.75;;;;;;;;;;5093531;28;20196;-74
2024/01/10 00:50:59;;;;;;;28.67;16.17;;;;;;;;;;5093311;28;20666;-74
2024/01/10 00:53:25;;;;;;;28.25;15.90;;;;;;;;;;5093285;28;20199;-74
2024/01/10 00:55:51;;;;;;;26.45;15.48;;;;;;;;;;5093036;28;20216;-74
2024/01/10 00:58:18;;;;;;;28.15;15.70;;;;;;;;;;5093163;28;20230;-74
2024/01/10 01:00:44;;;;;;;32.45;17.50;;;;;;;;;;5093026;28;20199;-74
2024/01/10 01:03:11;;;;;;;30.58;16.13;;;;;;;;;;5093684;28;20196;-75
2024/01/10 01:05:38;;;;;;;28.60;15.68;;;;;;;;;;5093816;28;20220;-74
2024/01/10 01:08:05;;;;;;;27.25;15.70;;;;;;;;;;5092960;28;20208;-74
2024/01/10 01:10:32;;;;;;;26.35;16.30;;;;;;;;;;5092855;28;20249;-74
2024/01/10 01:12:58;;;;;;;30.55;16.58;;;;;;;;;;5092767;28;20211;-74
2024/01/10 01:15:24;;;;;;;28.00;16.55;;;;;;;;;;5092974;28;20215;-75
2024/01/10 01:17:51;;;;;;;26.92;15.55;;;;;;;;;;5092740;28;20258;-74
2024/01/10 01:20:17;;;;;;;26.63;15.57;;;;;;;;;;5092894;28;20208;-74
2024/01/10 01:22:45;;;;;;;28.17;14.80;;;;;;;;;;5092485;28;20245;-74
2024/01/10 01:25:11;;;;;;;28.23;15.85;;;;;;;;;;5092613;28;20223;-74
2024/01/10 01:27:37;;;;;;;24.48;15.20;;;;;;;;;;5092560;28;20245;-74
2024/01/10 01:30:04;;;;;;;29.13;16.13;;;;;;;;;;5092559;28;20195;-75
2024/01/10 01:32:30;;;;;;;28.20;15.15;;;;;;;;;;5092564;28;20203;-74
2024/01/10 01:34:56;;;;;;;30.17;15.65;;;;;;;;;;5092365;28;20207;-75
2024/01/10 01:37:22;;;;;;;27.08;16.33;;;;;;;;;;5092310;28;20565;-74
2024/01/10 01:39:50;;;;;;;33.05;16.35;;;;;;;;;;5092151;28;20597;-74
2024/01/10 01:42:16;;;;;;;24.98;14.65;;;;;;;;;;5092200;28;20407;-74
2024/01/10 01:44:43;;;;;;;30.23;16.40;;;;;;;;;;5092286;28;20250;-74
2024/01/10 01:47:09;;;;;;;28.23;16.60;;;;;;;;;;5092157;28;20229;-74
2024/01/10 01:49:36;;;;;;;27.02;16.23;;;;;;;;;;5092272;28;20209;-75
2024/01/10 01:52:02;;;;;;;29.70;15.70;;;;;;;;;;5092048;28;20192;-74
2024/01/10 01:54:29;;;;;;;25.75;15.10;;;;;;;;;;5091992;28;20691;-74
2024/01/10 01:56:57;;;;;;;29.58;16.75;;;;;;;;;;5092237;28;20219;-75
2024/01/10 01:59:23;;;;;;;27.20;15.68;;;;;;;;;;5092376;28;20226;-74
2024/01/10 02:01:50;;;;;;;28.75;15.05;;;;;;;;;;5091900;28;20199;-74
2024/01/10 02:04:17;;;;;;;28.67;15.48;;;;;;;;;;5092264;28;20670;-74
2024/01/10 02:06:43;;;;;;;26.42;15.27;;;;;;;;;;5091698;28;20719;-74
2024/01/10 02:09:10;;;;;;;28.85;15.32;;;;;;;;;;5091960;28;20199;-74
2024/01/10 02:11:36;;;;;;;28.35;15.93;;;;;;;;;;5091982;28;20199;-75
2024/01/10 02:14:04;;;;;;;34.63;16.65;;;;;;;;;;5091920;28;20200;-75
2024/01/10 02:16:30;;;;;;;33.00;16.20;;;;;;;;;;5091907;28;20230;-75
2024/01/10 02:18:57;;;;;;;28.83;15.90;;;;;;;;;;5091973;28;20230;-75
2024/01/10 02:21:23;;;;;;;28.80;16.05;;;;;;;;;;5092001;28;20199;-74
2024/01/10 02:23:49;;;;;;;29.73;15.77;;;;;;;;;;5092003;28;20272;-74
2024/01/10 02:26:17;;;;;;;29.13;15.32;;;;;;;;;;5091744;28;20223;-74
2024/01/10 02:28:43;;;;;;;26.17;15.65;;;;;;;;;;5092106;28;20192;-74
2024/01/10 02:31:10;;;;;;;25.17;15.82;;;;;;;;;;5092124;28;20470;-74
2024/01/10 02:33:37;;;;;;;28.65;15.82;;;;;;;;;;5091927;28;20208;-73
2024/01/10 02:36:03;;;;;;;28.00;15.38;;;;;;;;;;5091528;28;20220;-74
2024/01/10 02:38:29;;;;;;;25.92;15.13;;;;;;;;;;5091652;28;20615;-74
2024/01/10 02:40:56;;;;;;;28.58;16.40;;;;;;;;;;5091905;28;20200;-74
2024/01/10 02:43:24;;;;;;;32.03;16.80;;;;;;;;;;5091961;28;20258;-74
2024/01/10 02:45:50;;;;;;;28.17;15.55;;;;;;;;;;5091330;28;20228;-74
2024/01/10 02:48:16;;;;;;;29.15;16.00;;;;;;;;;;5091391;28;20220;-75
2024/01/10 02:50:43;;;;;;;27.80;16.10;;;;;;;;;;5091604;28;20202;-74
2024/01/10 02:53:09;;;;;;;30.98;16.40;;;;;;;;;;5091884;28;20204;-74
2024/01/10 02:55:35;;;;;;;25.70;15.20;;;;;;;;;;5091583;28;20636;-75
2024/01/10 02:58:02;;;;;;;27.38;15.57;;;;;;;;;;5091456;28;20220;-75
2024/01/10 03:00:29;;;;;;;28.48;15.85;;;;;;;;;;5091668;28;20212;-75
2024/01/10 03:02:56;;;;;;;27.80;16.55;;;;;;;;;;5092409;28;20257;-75
2024/01/10 03:05:22;;;;;;;27.67;15.77;;;;;;;;;;5091637;28;20711;-74
2024/01/10 03:07:48;;;;;;;27.17;15.52;;;;;;;;;;5092488;28;20211;-75
2024/01/10 03:10:14;;;;;;;32.42;16.45;;;;;;;;;;5109121;28;20210;-74
2024/01/10 03:12:41;;;;;;;30.70;16.55;;;;;;;;;;5112281;28;20207;-75
2024/01/10 03:15:07;;;;;;;28.38;15.85;;;;;;;;;;5112980;28;20227;-75
2024/01/10 03:17:35;;;;;;;27.05;15.85;;;;;;;;;;5113302;28;20211;-75
2024/01/10 03:20:02;;;;;;;26.67;15.68;;;;;;;;;;5111624;28;20242;-75
2024/01/10 03:22:28;;;;;;;26.98;15.50;;;;;;;;;;5111488;28;20237;-74
2024/01/10 03:24:54;;;;;;;29.98;15.52;;;;;;;;;;5107881;28;20203;-74
2024/01/10 03:27:21;;;;;;;24.42;15.60;;;;;;;;;;5108901;28;20199;-74
2024/01/10 03:29:47;;;;;;;31.10;15.65;;;;;;;;;;5101141;28;20199;-74
2024/01/10 03:32:13;;;;;;;27.42;15.73;;;;;;;;;;5099891;28;20195;-73
2024/01/10 03:34:42;;;;;;;27.67;15.88;;;;;;;;;;5100205;28;20691;-74
2024/01/10 03:37:08;;;;;;;27.38;15.82;;;;;;;;;;5098696;28;20227;-74
2024/01/10 03:39:34;;;;;;;27.38;16.40;;;;;;;;;;5097977;28;20596;-74
2024/01/10 03:42:00;;;;;;;30.92;16.25;;;;;;;;;;5097390;28;20204;-74
2024/01/10 03:44:27;;;;;;;28.58;16.08;;;;;;;;;;5097672;28;20226;-74
2024/01/10 03:46:53;;;;;;;28.08;14.88;;;;;;;;;;5098135;28;20219;-74
2024/01/10 03:49:19;;;;;;;24.60;15.38;;;;;;;;;;5097139;28;20204;-74
2024/01/10 03:51:47;;;;;;;24.85;15.80;;;;;;;;;;5096539;28;20610;-74
2024/01/10 03:54:13;;;;;;;27.88;15.52;;;;;;;;;;5096435;28;20644;-75
2024/01/10 03:56:40;;;;;;;24.73;15.07;;;;;;;;;;5096256;28;20216;-74
2024/01/10 03:59:06;;;;;;;25.98;15.57;;;;;;;;;;5096502;28;20223;-74
2024/01/10 04:01:32;;;;;;;29.60;15.50;;;;;;;;;;5096644;28;20195;-74
2024/01/10 04:03:59;;;;;;;27.02;16.02;;;;;;;;;;5096165;28;20195;-74
2024/01/10 04:06:27;;;;;;;28.20;16.45;;;;;;;;;;5096233;28;20226;-74
2024/01/10 04:08:55;;;;;;;29.33;16.40;;;;;;;;;;5095716;28;20566;-73
2024/01/10 04:11:21;;;;;;;28.08;15.88;;;;;;;;;;5095948;28;20200;-74
2024/01/10 04:13:48;;;;;;;26.98;15.00;;;;;;;;;;5095509;28;20550;-74
2024/01/10 04:16:14;;;;;;;29.90;15.50;;;;;;;;;;5095584;28;20269;-74
2024/01/10 04:18:40;;;;;;;26.85;15.07;;;;;;;;;;5096234;28;20219;-74
2024/01/10 04:21:07;;;;;;;29.65;15.57;;;;;;;;;;5097953;28;20601;-73
2024/01/10 04:23:33;;;;;;;29.02;14.77;;;;;;;;;;5099159;28;20196;-74
2024/01/10 04:26:01;;;;;;;30.30;15.60;;;;;;;;;;5097875;28;20228;-74
2024/01/10 04:28:27;;;;;;;25.77;14.75;;;;;;;;;;5094411;28;20192;-74
2024/01/10 04:30:54;;;;;;;24.95;14.93;;;;;;;;;;5094298;28;20265;-74
2024/01/10 04:33:20;;;;;;;27.92;14.77;;;;;;;;;;5094681;28;20717;-74
2024/01/10 04:35:46;;;;;;;27.45;14.68;;;;;;;;;;5094486;28;20272;-73
2024/01/10 04:38:12;;;;;;;29.92;13.98;;;;;;;;;;5094562;28;20191;-74
2024/01/10 04:40:39;;;;;;;24.98;14.80;;;;;;;;;;5094609;28;20211;-74
2024/01/10 04:43:07;;;;;;;24.73;15.02;;;;;;;;;;5094469;28;20226;-75
2024/01/10 04:45:33;;;;;;;31.02;14.30;;;;;;;;;;5076409;28;20227;-74
2024/01/10 04:47:59;;;;;;;23.55;14.57;;;;;;;;;;5094064;28;20199;-74
2024/01/10 04:50:26;;;;;;;25.50;14.52;;;;;;;;;;5094561;28;20253;-74
2024/01/10 04:52:52;;;;;;;23.52;14.23;;;;;;;;;;5076020;28;20290;-74
2024/01/10 04:55:18;;;;;;;24.50;14.95;;;;;;;;;;5093507;28;20216;-74
2024/01/10 04:57:44;;;;;;;24.48;13.80;;;;;;;;;;5093458;28;20617;-74
2024/01/10 05:00:13;;;;;;;22.63;13.55;;;;;;;;;;5093151;28;20223;-74
2024/01/10 05:02:39;;;;;;;24.92;12.90;;;;;;;;;;5093470;28;20219;-75
2024/01/10 05:05:06;;;;;;;24.17;13.45;;;;;;;;;;5093179;28;20200;-75
2024/01/10 05:07:33;;;;;;;21.98;12.85;;;;;;;;;;5093327;28;20294;-75
2024/01/10 05:09:59;;;;;;;20.92;12.50;;;;;;;;;;5093164;28;20200;-76
2024/01/10 05:12:25;;;;;;;21.83;12.80;;;;;;;;;;5093106;28;20660;-75
2024/01/10 05:14:52;;;;;;;22.33;12.38;;;;;;;;;;5093501;28;20210;-76
2024/01/10 05:17:19;;;;;;;23.50;11.82;;;;;;;;;;5093121;28;20716;-75
2024/01/10 05:19:46;;;;;;;21.38;13.10;;;;;;;;;;5092932;28;20756;-75
2024/01/10 05:22:12;;;;;;;21.40;13.20;;;;;;;;;;5093142;28;20200;-75
2024/01/10 05:24:38;;;;;;;26.35;13.63;;;;;;;;;;5092717;28;20687;-75
2024/01/10 05:27:05;;;;;;;21.02;13.48;;;;;;;;;;5092875;28;20246;-75
2024/01/10 05:29:32;;;;;;;23.48;13.40;;;;;;;;;;5093248;28;20192;-75
2024/01/10 05:31:58;;;;;;;24.27;13.68;;;;;;;;;;5092579;28;20204;-75
2024/01/10 05:34:25;;;;;;;25.63;13.30;;;;;;;;;;5092921;28;20204;-75
2024/01/10 05:36:52;;;;;;;21.45;13.20;;;;;;;;;;5092687;28;20223;-75
2024/01/10 05:39:20;;;;;;;20.85;13.45;;;;;;;;;;5092408;28;20721;-74
2024/01/10 05:41:46;;;;;;;22.65;13.30;;;;;;;;;;5092640;28;20272;-75
2024/01/10 05:44:13;;;;;;;21.60;13.38;;;;;;;;;;5092552;28;20207;-75
2024/01/10 05:46:39;;;;;;;25.08;13.70;;;;;;;;;;5092555;28;20223;-75
2024/01/10 05:49:06;;;;;;;23.98;13.68;;;;;;;;;;5092379;28;20196;-76
2024/01/10 05:51:34;;;;;;;25.83;14.20;;;;;;;;;;5092731;28;20195;-74
2024/01/10 05:54:00;;;;;;;20.98;12.43;;;;;;;;;;5092752;28;20208;-75
2024/01/10 05:56:28;;;;;;;21.48;13.75;;;;;;;;;;5092892;28;20227;-75
2024/01/10 05:58:54;;;;;;;28.10;13.45;;;;;;;;;;5092846;28;20680;-74
2024/01/10 06:01:20;;;;;;;22.05;13.40;;;;;;;;;;5092375;28;20200;-75
2024/01/10 06:03:47;;;;;;;25.33;14.20;;;;;;;;;;5092806;28;20203;-74
2024/01/10 06:06:13;;;;;;;22.02;13.18;;;;;;;;;;5092054;28;20220;-75
2024/01/10 06:08:40;;;;;;;22.75;12.85;;;;;;;;;;5092923;28;20228;-75
2024/01/10 06:11:09;;;;;;;27.23;14.40;;;;;;;;;;5092149;28;20203;-74
2024/01/10 06:13:35;;;;;;;24.50;14.55;;;;;;;;;;5091852;28;20203;-74
2024/01/10 06:16:02;;;;;;;24.83;14.20;;;;;;;;;;5091609;28;20219;-75
2024/01/10 06:18:28;;;;;;;24.15;14.63;;;;;;;;;;5090869;28;20195;-75
2024/01/10 06:20:55;;;;;;;23.83;13.25;;;;;;;;;;5089656;28;20598;-75
2024/01/10 06:23:21;;;;;;;31.55;13.35;;;;;;;;;;5090127;28;20204;-74
2024/01/10 06:25:49;;;;;;;26.40;14.65;;;;;;;;;;5089403;28;20216;-74
2024/01/10 06:28:15;;;;;;;24.00;13.18;;;;;;;;;;5089557;28;20218;-74
2024/01/10 06:30:41;;;;;;;23.45;14.13;;;;;;;;;;5089634;28;20204;-74
2024/01/10 06:33:08;;;;;;;24.42;13.63;;;;;;;;;;5090018;28;20200;-75
2024/01/10 06:35:34;;;;;;;22.35;14.30;;;;;;;;;;5092044;28;20223;-75
2024/01/10 06:38:03;;;;;;;24.98;14.68;;;;;;;;;;5092014;28;20235;-75
2024/01/10 06:40:29;;;;;;;25.15;15.38;;;;;;;;;;5091803;28;20330;-75
2024/01/10 06:42:57;;;;;;;26.33;15.48;;;;;;;;;;5092962;28;20206;-75
2024/01/10 06:45:24;;;;;;;26.70;15.23;;;;;;;;;;5095853;28;20584;-75
2024/01/10 06:47:50;;;;;;;26.98;15.85;;;;;;;;;;5095986;28;20222;-75
2024/01/10 06:50:19;;;;;;;26.10;15.00;;;;;;;;;;5095471;28;20566;-75
2024/01/10 06:52:45;;;;;;;24.45;15.80;;;;;;;;;;5095258;28;20265;-64
2024/01/10 06:55:11;;;;;;;27.52;15.40;;;;;;;;;;5094634;28;20309;-64
2024/01/10 06:57:37;;;;;;;24.02;14.90;;;;;;;;;;5094288;28;20200;-64
2024/01/10 07:00:10;;;;;;;26.90;15.00;;;;;;;;;;5094141;28;20279;-64
2024/01/10 07:02:37;;;;;;;30.60;15.40;;;;;;;;;;5094038;28;20988;-63
2024/01/10 07:05:05;;;;;;;25.98;15.10;;;;;;;;;;5094163;28;20207;-61
2024/01/10 07:07:32;;;;;;;26.15;15.55;;;;;;;;;;5085155;28;20238;-62
2024/01/10 07:10:18;;;;;;;25.52;15.18;;;;;;;;;;5088846;28;20207;-62
2024/01/10 07:12:44;;;;;;;26.85;15.32;;;;;;;;;;5088402;28;20208;-62
2024/01/10 07:15:12;;;;;;;26.92;15.38;;;;;;;;;;5088661;28;20224;-63
2024/01/10 07:17:38;;;;;;;29.83;16.52;;;;;;;;;;5088974;28;20652;-63
2024/01/10 07:20:07;;;;;;;27.75;15.27;;;;;;;;;;5088771;28;20269;-61
2024/01/10 07:22:33;;;;;;;25.52;14.98;;;;;;;;;;5088206;28;20295;-61
2024/01/10 07:24:59;;;;;;;26.83;15.32;;;;;;;;;;5085509;28;20280;-61
2024/01/10 07:27:26;;;;;;;27.77;14.63;;;;;;;;;;5088556;28;20241;-61
2024/01/10 07:29:52;;;;;;;25.77;14.73;;;;;;;;;;5083355;28;20252;-61
2024/01/10 07:32:20;;;;;;;24.38;15.05;;;;;;;;;;5084101;28;20607;-62
2024/01/10 07:34:46;;;;;;;26.80;15.40;;;;;;;;;;5084204;28;20218;-60
2024/01/10 07:37:16;;;;;;;24.98;14.15;;;;;;;;;;5083770;28;20203;-60
2024/01/10 07:39:42;;;;;;;27.42;14.85;;;;;;;;;;5083998;28;20815;-60
2024/01/10 07:42:08;;;;;;;25.63;14.68;;;;;;;;;;5083954;28;20234;-61
2024/01/10 07:44:35;;;;;;;25.33;14.80;;;;;;;;;;5084812;28;20215;-60
2024/01/10 07:47:01;;;;;;;24.55;15.15;;;;;;;;;;5085442;28;20227;-60
2024/01/10 07:49:29;;;;;;;24.13;15.23;;;;;;;;;;5084973;28;20237;-60
2024/01/10 07:51:56;;;;;;;23.75;14.38;;;;;;;;;;5084638;28;20655;-61
2024/01/10 07:54:22;;;;;;;29.35;15.48;;;;;;;;;;5083770;28;20732;-61
2024/01/10 07:56:48;;;;;;;26.48;15.35;;;;;;;;;;5084853;28;20231;-60
2024/01/10 07:59:15;;;;;;;25.92;16.00;;;;;;;;;;5084459;28;20285;-61
2024/01/10 08:01:44;;;;;;;27.88;15.25;;;;;;;;;;5084848;28;20203;-60
2024/01/10 08:04:10;;;;;;;25.88;14.93;;;;;;;;;;5085149;28;20233;-60
2024/01/10 08:06:38;;;;;;;27.33;15.73;;;;;;;;;;5084659;28;20313;-60
2024/01/10 08:09:04;;;;;;;29.98;16.33;;;;;;;;;;5085222;28;20983;-62
2024/01/10 08:11:31;;;;;;;26.73;14.88;;;;;;;;;;5084692;28;20680;-60
2024/01/10 08:13:57;;;;;;;24.83;14.10;;;;;;;;;;5084414;28;20302;-60
2024/01/10 08:16:23;;;;;;;28.65;15.13;;;;;;;;;;5084745;28;20772;-60
2024/01/10 08:18:50;;;;;;;34.72;17.58;;;;;;;;;;5084467;28;20211;-60
2024/01/10 08:21:16;;;;;;;28.65;15.13;;;;;;;;;;5084772;28;20227;-61
2024/01/10 08:23:43;;;;;;;29.90;16.60;;;;;;;;;;5084138;28;20668;-60
2024/01/10 08:26:10;;;;;;;26.80;15.70;;;;;;;;;;5083864;28;20232;-62
2024/01/10 08:28:36;;;;;;;34.08;16.48;;;;;;;;;;5084457;28;20629;-61
2024/01/10 08:31:03;;;;;;;30.98;17.40;;;;;;;;;;5083972;28;20207;-61
2024/01/10 08:33:30;;;;;;;30.55;17.05;;;;;;;;;;5083927;28;20218;-61
2024/01/10 08:35:56;;;;;;;26.92;16.65;;;;;;;;;;5082869;28;20327;-64
2024/01/10 08:38:22;;;;;;;30.23;17.08;;;;;;;;;;5084608;28;20640;-63
2024/01/10 08:40:50;;;;;;;30.33;17.23;;;;;;;;;;5086775;28;20228;-62
2024/01/10 08:43:17;;;;;;;28.42;17.23;;;;;;;;;;5082747;28;20208;-62
2024/01/10 08:45:44;;;;;;;28.17;16.90;;;;;;;;;;5085885;28;20215;-61
2024/01/10 08:48:11;;;;;;;29.83;15.95;;;;;;;;;;5083073;28;20621;-64
2024/01/10 08:50:38;;;;;;;29.50;17.08;;;;;;;;;;5085204;28;20200;-64
2024/01/10 08:53:05;;;;;;;30.92;16.60;;;;;;;;;;5084838;28;20215;-64
2024/01/10 08:55:31;;;;;;;34.47;16.98;;;;;;;;;;5085246;28;20223;-63
2024/01/10 08:57:58;;;;;;;29.02;17.83;;;;;;;;;;5085092;28;20265;-63
2024/01/10 09:00:25;;;;;;;26.88;16.00;;;;;;;;;;5084781;28;20607;-64
2024/01/10 09:02:52;;;;;;;31.98;17.38;;;;;;;;;;5084716;28;20208;-64
2024/01/10 09:05:18;;;;;;;39.08;17.60;;;;;;;;;;5084385;28;20220;-63
2024/01/10 09:07:44;;;;;;;28.15;16.45;;;;;;;;;;5083806;28;20268;-63
2024/01/10 09:10:10;;;;;;;27.65;16.48;;;;;;;;;;5084980;28;20257;-62
2024/01/10 09:12:37;;;;;;;30.20;17.40;;;;;;;;;;5084231;28;20256;-61
2024/01/10 09:15:08;;;;;;;32.95;17.83;;;;;;;;;;5085038;28;20253;-62
2024/01/10 09:17:34;;;;;;;29.90;17.27;;;;;;;;;;5085172;28;20227;-62
2024/01/10 09:20:02;;;;;;;28.90;18.02;;;;;;;;;;5085021;28;20235;-62
2024/01/10 09:22:28;;;;;;;35.80;17.85;;;;;;;;;;5084850;28;20254;-62
2024/01/10 09:24:55;;;;;;;32.47;18.75;;;;;;;;;;5084512;28;20220;-60
2024/01/10 09:27:22;;;;;;;31.50;18.33;;;;;;;;;;5085580;28;20265;-61
2024/01/10 09:29:49;;;;;;;32.65;17.67;;;;;;;;;;5084732;28;20311;-60
2024/01/10 09:32:16;;;;;;;35.35;21.88;;;;;;;;;;5084709;28;20239;-62
2024/01/10 09:34:42;;;;;;;29.38;18.52;;;;;;;;;;5084332;28;20215;-63
2024/01/10 09:37:09;;;;;;;31.75;18.05;;;;;;;;;;5084743;28;20239;-60
2024/01/10 09:39:35;;;;;;;34.13;19.77;;;;;;;;;;5085121;28;20261;-61
2024/01/10 09:42:01;;;;;;;36.50;19.38;;;;;;;;;;5084534;28;20967;-61
2024/01/10 09:44:29;;;;;;;36.60;19.08;;;;;;;;;;5084130;28;20211;-60
2024/01/10 09:46:55;;;;;;;34.47;19.27;;;;;;;;;;5084867;28;20229;-62
2024/01/10 09:49:23;;;;;;;32.58;18.88;;;;;;;;;;5083762;28;20598;-60
2024/01/10 09:51:50;;;;;;;36.30;20.10;;;;;;;;;;5084495;28;20204;-62
2024/01/10 09:54:16;;;;;;;34.63;19.85;;;;;;;;;;5084234;28;20214;-61
2024/01/10 09:56:43;;;;;;;35.70;19.88;;;;;;;;;;5084299;28;20233;-62
2024/01/10 09:59:12;;;;;;;42.15;20.60;;;;;;;;;;5084078;28;20290;-62
2024/01/10 10:01:39;;;;;;;33.63;19.17;;;;;;;;;;5084259;28;20233;-63
2024/01/10 10:04:05;;;;;;;37.53;20.38;;;;;;;;;;5084022;28;20381;-62
2024/01/10 10:06:33;;;;;;;34.13;21.15;;;;;;;;;;5083831;28;20784;-62
2024/01/10 10:09:00;;;;;;;37.03;21.63;;;;;;;;;;5084446;28;20204;-61
2024/01/10 10:11:26;;;;;;;33.90;19.02;;;;;;;;;;5084356;28;20253;-60
2024/01/10 10:13:52;;;;;;;41.17;21.42;;;;;;;;;;5084084;28;20207;-60
2024/01/10 10:16:24;;;;;;;38.80;19.42;;;;;;;;;;5082811;28;20272;-61
2024/01/10 10:18:50;;;;;;;32.42;19.38;;;;;;;;;;5091668;28;20214;-60
2024/01/10 10:21:16;;;;;;;35.10;20.45;;;;;;;;;;5091091;28;20632;-60
2024/01/10 10:23:58;;;;;;;38.10;20.80;;;;;;;;;;5091379;28;20219;-61
2024/01/10 10:26:24;;;;;;;41.88;25.20;;;;;;;;;;5090970;28;20231;-59
2024/01/10 10:28:51;;;;;;;34.15;20.52;;;;;;;;;;5090572;28;20211;-61
2024/01/10 10:31:18;;;;;;;40.20;22.30;;;;;;;;;;5091416;28;20199;-61
2024/01/10 10:33:45;;;;;;;33.25;19.73;;;;;;;;;;5090812;28;20207;-59
2024/01/10 10:36:11;;;;;;;36.30;21.15;;;;;;;;;;5090835;28;20234;-61
2024/01/10 10:38:37;;;;;;;39.65;21.02;;;;;;;;;;5090987;28;20207;-61
2024/01/10 10:41:06;;;;;;;33.95;20.02;;;;;;;;;;5090355;28;20219;-61
2024/01/10 10:43:34;;;;;;;38.13;21.08;;;;;;;;;;5086558;28;20679;-61
2024/01/10 10:46:01;;;;;;;43.67;25.83;;;;;;;;;;5090734;28;20223;-61
2024/01/10 10:48:32;;;;;;;36.97;20.80;;;;;;;;;;5091177;28;20203;-61
2024/01/10 10:51:00;;;;;;;35.03;21.35;;;;;;;;;;5091264;28;20207;-62
2024/01/10 10:53:28;;;;;;;38.75;20.67;;;;;;;;;;5090147;28;20660;-62
2024/01/10 10:55:55;;;;;;;36.92;21.33;;;;;;;;;;5090785;28;20224;-63
2024/01/10 10:58:23;;;;;;;34.97;20.95;;;;;;;;;;5089919;28;20211;-62
2024/01/10 11:00:50;;;;;;;35.53;20.27;;;;;;;;;;5091048;28;20223;-61
2024/01/10 11:03:17;;;;;;;35.28;21.27;;;;;;;;;;5090436;28;20257;-60
2024/01/10 11:05:43;;;;;;;38.35;21.42;;;;;;;;;;5090925;28;20272;-58
2024/01/10 11:08:12;;;;;;;34.78;21.55;;;;;;;;;;5090140;28;20725;-60
2024/01/10 11:10:40;;;;;;;36.58;21.08;;;;;;;;;;5090847;28;20257;-61
2024/01/10 11:13:14;;;;;;;35.17;20.90;;;;;;;;;;5090979;28;20207;-61
2024/01/10 11:15:50;;;;;;;35.53;20.60;;;;;;;;;;5090841;28;20223;-60
2024/01/10 11:18:24;;;;;;;35.58;21.02;;;;;;;;;;5090424;28;20211;-61
2024/01/10 11:20:58;;;;;;;36.85;20.65;;;;;;;;;;5089888;28;20273;-59
2024/01/10 11:23:39;;;;;;;36.53;21.73;;;;;;;;;;5090783;28;20292;-61
2024/01/10 11:26:05;;;;;;;34.83;21.15;;;;;;;;;;5090825;28;20960;-59
2024/01/10 11:28:31;;;;;;;33.67;20.75;;;;;;;;;;5090390;28;20254;-60
2024/01/10 11:30:59;;;;;;;37.47;21.30;;;;;;;;;;5091127;28;20304;-61
2024/01/10 11:33:26;;;;;;;38.35;21.63;;;;;;;;;;5090634;28;20615;-59
2024/01/10 11:36:12;;;;;;;35.47;20.70;;;;;;;;;;5089829;28;20276;-62
2024/01/10 11:38:45;;;;;;;35.08;20.45;;;;;;;;;;5087429;28;20230;-60
2024/01/10 11:41:11;;;;;;;40.72;21.83;;;;;;;;;;5090038;28;20259;-61
2024/01/10 11:43:38;;;;;;;37.30;20.98;;;;;;;;;;5086265;28;20683;-62
2024/01/10 11:46:06;;;;;;;33.58;19.63;;;;;;;;;;5089658;28;20226;-60
2024/01/10 11:48:33;;;;;;;35.47;22.13;;;;;;;;;;5090716;28;20210;-60
2024/01/10 11:51:00;;;;;;;35.42;21.38;;;;;;;;;;5089428;28;20208;-60
2024/01/10 11:53:40;;;;;;;34.85;20.48;;;;;;;;;;5090121;28;20215;-60
2024/01/10 11:56:10;;;;;;;33.15;21.13;;;;;;;;;;5089647;28;20646;-61
2024/01/10 11:58:52;;;;;;;32.10;20.25;;;;;;;;;;5089813;28;20200;-60
2024/01/10 12:01:20;;;;;;;31.17;20.27;;;;;;;;;;5089855;28;20683;-60
2024/01/10 12:03:47;;;;;;;36.33;22.48;;;;;;;;;;5089575;28;20234;-60
2024/01/10 12:06:15;;;;;;;35.75;21.17;;;;;;;;;;5088948;28;20259;-60
2024/01/10 12:08:41;;;;;;;33.38;20.77;;;;;;;;;;5089549;28;20219;-62
2024/01/10 12:11:08;;;;;;;31.60;20.38;;;;;;;;;;5089282;28;20207;-63
2024/01/10 12:13:34;;;;;;;33.53;20.67;;;;;;;;;;5090196;28;20203;-63
2024/01/10 12:16:01;;;;;;;31.98;19.90;;;;;;;;;;5089052;28;20223;-63
2024/01/10 12:18:28;;;;;;;32.97;20.77;;;;;;;;;;5089336;28;20208;-62
2024/01/10 12:20:55;;;;;;;32.72;21.45;;;;;;;;;;5089301;28;20259;-63
2024/01/10 12:23:21;;;;;;;32.95;20.45;;;;;;;;;;5088800;28;20625;-60
2024/01/10 12:25:49;;;;;;;35.03;20.60;;;;;;;;;;5089020;28;20630;-60
2024/01/10 12:28:16;;;;;;;34.10;20.67;;;;;;;;;;5085965;28;20240;-62
2024/01/10 12:30:43;;;;;;;31.98;20.30;;;;;;;;;;5088755;28;21034;-62
2024/01/10 12:33:09;;;;;;;31.80;20.90;;;;;;;;;;5089869;28;20227;-61
2024/01/10 12:35:41;;;;;;;33.85;21.83;;;;;;;;;;5088603;28;20235;-61
2024/01/10 12:38:07;;;;;;;35.78;20.88;;;;;;;;;;5084131;28;20240;-60
2024/01/10 12:40:33;;;;;;;33.17;20.60;;;;;;;;;;5087201;28;20624;-63
2024/01/10 12:43:03;;;;;;;30.95;20.02;;;;;;;;;;5088793;28;20666;-61
2024/01/10 12:45:29;;;;;;;34.88;21.38;;;;;;;;;;5088303;28;20269;-62
2024/01/10 12:47:55;;;;;;;31.63;19.98;;;;;;;;;;5088835;28;20206;-62
2024/01/10 12:50:22;;;;;;;33.38;21.25;;;;;;;;;;5088892;28;20326;-62
2024/01/10 12:52:49;;;;;;;31.85;20.80;;;;;;;;;;5089160;28;20253;-62
2024/01/10 12:55:16;;;;;;;30.30;20.23;;;;;;;;;;5089228;28;20231;-62
2024/01/10 12:57:42;;;;;;;30.15;19.77;;;;;;;;;;5089057;28;20231;-63
2024/01/10 13:00:09;;;;;;;25.88;18.75;;;;;;;;;;5088483;28;20203;-62
2024/01/10 13:02:43;;;;;;;38.75;21.00;;;;;;;;;;5125970;27;20796;-63
2024/01/10 13:05:09;;;;;;;31.58;20.27;;;;;;;;;;5125954;28;20278;-63
2024/01/10 13:07:36;;;;;;;32.55;20.73;;;;;;;;;;5117646;27;20209;-63
2024/01/10 13:10:03;;;;;;;31.00;20.75;;;;;;;;;;5119794;27;20280;-63
2024/01/10 13:12:30;;;;;;;31.35;20.02;;;;;;;;;;5117419;28;20285;-62
2024/01/10 13:14:56;;;;;;;30.63;20.27;;;;;;;;;;5116206;28;20198;-62
2024/01/10 13:17:22;;;;;;;34.15;20.90;;;;;;;;;;5118288;27;20203;-63
2024/01/10 13:19:50;;;;;;;32.55;20.90;;;;;;;;;;5121862;27;20203;-62
2024/01/10 13:22:18;;;;;;;34.13;21.48;;;;;;;;;;5118093;27;20714;-62
2024/01/10 13:24:45;;;;;;;36.60;22.20;;;;;;;;;;5116398;28;20310;-62
2024/01/10 13:27:11;;;;;;;31.50;20.83;;;;;;;;;;5123985;27;20222;-64
2024/01/10 13:29:38;;;;;;;28.55;20.27;;;;;;;;;;5119466;27;20206;-62
2024/01/10 13:32:04;;;;;;;35.20;21.23;;;;;;;;;;5119262;27;20666;-63
2024/01/10 13:34:30;;;;;;;35.70;22.65;;;;;;;;;;5114093;28;20271;-61
2024/01/10 13:36:58;;;;;;;34.42;21.45;;;;;;;;;;5117632;27;20223;-63
2024/01/10 13:39:25;;;;;;;35.80;22.08;;;;;;;;;;5121543;27;20765;-63
2024/01/10 13:41:51;;;;;;;38.40;22.95;;;;;;;;;;5122100;27;20214;-64
2024/01/10 13:44:17;;;;;;;30.80;20.50;;;;;;;;;;5121879;27;20616;-63
2024/01/10 13:46:44;;;;;;;32.42;21.75;;;;;;;;;;5121862;27;20250;-62
2024/01/10 13:49:11;;;;;;;34.25;21.10;;;;;;;;;;5121862;27;20633;-62
2024/01/10 13:51:37;;;;;;;32.03;21.05;;;;;;;;;;5121735;27;20199;-62
2024/01/10 13:54:05;;;;;;;34.03;21.30;;;;;;;;;;5121287;27;20202;-62
2024/01/10 13:56:32;;;;;;;34.25;22.10;;;;;;;;;;5121111;27;20282;-63
2024/01/10 13:58:58;;;;;;;32.25;21.45;;;;;;;;;;5122337;27;20202;-62
2024/01/10 14:01:24;;;;;;;34.42;22.20;;;;;;;;;;5121172;27;20340;-62
2024/01/10 14:03:52;;;;;;;35.08;22.23;;;;;;;;;;5122094;27;20323;-63
2024/01/10 14:06:18;;;;;;;36.55;21.38;;;;;;;;;;5121595;27;20230;-63
2024/01/10 14:08:47;;;;;;;32.15;20.80;;;;;;;;;;5120601;28;20213;-62
2024/01/10 14:11:15;;;;;;;40.08;23.30;;;;;;;;;;5121788;27;20251;-65
2024/01/10 14:13:41;;;;;;;37.85;21.80;;;;;;;;;;5109938;27;20260;-62
2024/01/10 14:16:07;;;;;;;36.95;21.27;;;;;;;;;;5107826;28;20215;-64